Terminal Aerodrome Forecast
Issued by NWS

Home | Current Version | Previous Version | Text Only | Print | Product List | Glossary On
Versions: 1 2 3 4 5 6 7 8 9 10 11 12 13 14 15
000
FTUS45 KREV 032300
TAFMMH
TAF
KMMH 032333Z 0400/0424 27015G25KT P6SM VCSH SCT040 BKN060
     FM040300 VRB06KT P6SM SCT250
     FM042000 12008KT P6SM BKN100=

USA.gov is the U.S. government's official web portal to all federal, state and local government web resources and services.